sensor_id;sensor_type;location;lat;lon;timestamp;pressure;altitude;pressure_sealevel;temperature;humidity
34482;BME280;20720;48.886;9.388;2023-04-09T00:00:39;99085.09;;;11.98;100.00
34482;BME280;20720;48.886;9.388;2023-04-09T00:03:05;99090.00;;;12.01;100.00
34482;BME280;20720;48.886;9.388;2023-04-09T00:05:30;99092.75;;;11.72;100.00
34482;BME280;20720;48.886;9.388;2023-04-09T00:07:56;99083.91;;;12.01;100.00
34482;BME280;20720;48.886;9.388;2023-04-09T00:10:21;99077.94;;;11.92;100.00
34482;BME280;20720;48.886;9.388;2023-04-09T00:12:47;99088.25;;;11.16;100.00
34482;BME280;20720;48.886;9.388;2023-04-09T00:15:12;99085.25;;;11.69;100.00
34482;BME280;20720;48.886;9.388;2023-04-09T00:17:37;99077.81;;;12.00;100.00
34482;BME280;20720;48.886;9.388;2023-04-09T00:20:03;99084.47;;;11.75;100.00
34482;BME280;20720;48.886;9.388;2023-04-09T00:22:28;99082.97;;;11.87;100.00
34482;BME280;20720;48.886;9.388;2023-04-09T00:24:54;99077.72;;;11.87;100.00
34482;BME280;20720;48.886;9.388;2023-04-09T00:27:19;99081.94;;;12.09;100.00
34482;BME280;20720;48.886;9.388;2023-04-09T00:29:45;99074.56;;;12.19;100.00
34482;BME280;20720;48.886;9.388;2023-04-09T00:32:11;99076.94;;;12.14;100.00
34482;BME280;20720;48.886;9.388;2023-04-09T00:34:36;99081.94;;;12.09;100.00
34482;BME280;20720;48.886;9.388;2023-04-09T00:37:02;99075.19;;;12.00;100.00
34482;BME280;20720;48.886;9.388;2023-04-09T00:39:28;99068.63;;;11.90;100.00
34482;BME280;20720;48.886;9.388;2023-04-09T00:41:57;99074.66;;;11.84;100.00
34482;BME280;20720;48.886;9.388;2023-04-09T00:44:23;99074.22;;;12.01;100.00
34482;BME280;20720;48.886;9.388;2023-04-09T00:46:49;99072.94;;;11.97;100.00
34482;BME280;20720;48.886;9.388;2023-04-09T00:49:14;99074.97;;;11.95;100.00
34482;BME280;20720;48.886;9.388;2023-04-09T00:51:40;99074.72;;;11.90;100.00
34482;BME280;20720;48.886;9.388;2023-04-09T00:54:06;99079.47;;;12.01;100.00
34482;BME280;20720;48.886;9.388;2023-04-09T00:56:32;99077.97;;;11.71;100.00
34482;BME280;20720;48.886;9.388;2023-04-09T00:58:58;99076.03;;;11.44;100.00
34482;BME280;20720;48.886;9.388;2023-04-09T01:01:23;99090.34;;;11.56;100.00
34482;BME280;20720;48.886;9.388;2023-04-09T01:03:48;99081.94;;;11.46;100.00
34482;BME280;20720;48.886;9.388;2023-04-09T01:09:00;99082.38;;;10.99;100.00
34482;BME280;20720;48.886;9.388;2023-04-09T01:14:00;99084.44;;;11.54;100.00
34482;BME280;20720;48.886;9.388;2023-04-09T01:16:31;99073.06;;;11.68;100.00
34482;BME280;20720;48.886;9.388;2023-04-09T01:19:38;99071.94;;;11.77;100.00
34482;BME280;20720;48.886;9.388;2023-04-09T01:22:13;99069.09;;;11.22;100.00
34482;BME280;20720;48.886;9.388;2023-04-09T01:25:21;99071.88;;;11.35;100.00
34482;BME280;20720;48.886;9.388;2023-04-09T01:30:47;99065.63;;;11.36;100.00
34482;BME280;20720;48.886;9.388;2023-04-09T01:33:17;99075.06;;;11.30;100.00
34482;BME280;20720;48.886;9.388;2023-04-09T01:35:45;99076.47;;;11.12;100.00
34482;BME280;20720;48.886;9.388;2023-04-09T01:38:13;99074.63;;;11.27;100.00
34482;BME280;20720;48.886;9.388;2023-04-09T01:40:38;99072.34;;;11.60;100.00
34482;BME280;20720;48.886;9.388;2023-04-09T01:43:05;99073.06;;;11.68;100.00
34482;BME280;20720;48.886;9.388;2023-04-09T01:45:33;99083.41;;;11.70;100.00
34482;BME280;20720;48.886;9.388;2023-04-09T01:47:58;99075.50;;;11.70;100.00
34482;BME280;20720;48.886;9.388;2023-04-09T01:50:24;99074.09;;;11.67;100.00
34482;BME280;20720;48.886;9.388;2023-04-09T01:52:50;99076.78;;;11.38;100.00
34482;BME280;20720;48.886;9.388;2023-04-09T01:55:15;99077.34;;;11.55;100.00
34482;BME280;20720;48.886;9.388;2023-04-09T01:57:40;99076.63;;;11.25;100.00
34482;BME280;20720;48.886;9.388;2023-04-09T02:00:06;99073.03;;;10.68;100.00
34482;BME280;20720;48.886;9.388;2023-04-09T02:02:36;99074.91;;;10.30;100.00
34482;BME280;20720;48.886;9.388;2023-04-09T02:05:08;99068.63;;;11.18;100.00
34482;BME280;20720;48.886;9.388;2023-04-09T02:07:38;99075.59;;;11.41;100.00
34482;BME280;20720;48.886;9.388;2023-04-09T02:10:07;99066.19;;;11.67;100.00
34482;BME280;20720;48.886;9.388;2023-04-09T02:12:35;99067.41;;;11.50;100.00
34482;BME280;20720;48.886;9.388;2023-04-09T02:15:01;99069.03;;;11.66;100.00
34482;BME280;20720;48.886;9.388;2023-04-09T02:17:27;99071.16;;;11.26;100.00
34482;BME280;20720;48.886;9.388;2023-04-09T02:19:52;99066.19;;;11.67;100.00
34482;BME280;20720;48.886;9.388;2023-04-09T02:22:18;99073.53;;;10.19;100.00
34482;BME280;20720;48.886;9.388;2023-04-09T02:24:45;99060.53;;;10.70;100.00
34482;BME280;20720;48.886;9.388;2023-04-09T02:27:10;99068.31;;;11.07;100.00
34482;BME280;20720;48.886;9.388;2023-04-09T02:29:39;99063.94;;;11.50;100.00
34482;BME280;20720;48.886;9.388;2023-04-09T02:32:05;99064.19;;;11.69;100.00
34482;BME280;20720;48.886;9.388;2023-04-09T02:34:31;99058.72;;;11.71;100.00
34482;BME280;20720;48.886;9.388;2023-04-09T02:36:56;99058.97;;;11.40;100.00
34482;BME280;20720;48.886;9.388;2023-04-09T02:39:21;99054.41;;;10.11;100.00
34482;BME280;20720;48.886;9.388;2023-04-09T02:41:46;99052.53;;;10.19;100.00
34482;BME280;20720;48.886;9.388;2023-04-09T02:44:11;99056.72;;;10.28;100.00
34482;BME280;20720;48.886;9.388;2023-04-09T02:46:37;99051.91;;;11.05;100.00
34482;BME280;20720;48.886;9.388;2023-04-09T02:49:03;99061.06;;;11.09;100.00
34482;BME280;20720;48.886;9.388;2023-04-09T02:51:28;99064.28;;;11.25;100.00
34482;BME280;20720;48.886;9.388;2023-04-09T02:53:53;99064.66;;;11.58;100.00
34482;BME280;20720;48.886;9.388;2023-04-09T02:56:19;99068.53;;;10.76;100.00
34482;BME280;20720;48.886;9.388;2023-04-09T02:58:44;99063.28;;;9.87;100.00
34482;BME280;20720;48.886;9.388;2023-04-09T03:01:09;99053.13;;;9.84;100.00
34482;BME280;20720;48.886;9.388;2023-04-09T03:03:35;99058.88;;;10.10;100.00
34482;BME280;20720;48.886;9.388;2023-04-09T03:06:01;99052.13;;;11.24;100.00
34482;BME280;20720;48.886;9.388;2023-04-09T03:08:26;99059.22;;;11.24;100.00
34482;BME280;20720;48.886;9.388;2023-04-09T03:10:52;99054.00;;;10.36;100.00
34482;BME280;20720;48.886;9.388;2023-04-09T03:13:17;99047.13;;;10.35;100.00
34482;BME280;20720;48.886;9.388;2023-04-09T03:15:42;99045.63;;;11.06;100.00
34482;BME280;20720;48.886;9.388;2023-04-09T03:18:07;99052.31;;;11.23;100.00
34482;BME280;20720;48.886;9.388;2023-04-09T03:20:36;99043.25;;;11.11;100.00
34482;BME280;20720;48.886;9.388;2023-04-09T03:23:01;99045.41;;;11.58;100.00
34482;BME280;20720;48.886;9.388;2023-04-09T03:25:27;99048.16;;;11.50;100.00
34482;BME280;20720;48.886;9.388;2023-04-09T03:27:52;99045.50;;;11.28;100.00
34482;BME280;20720;48.886;9.388;2023-04-09T03:30:18;99048.16;;;11.14;100.00
34482;BME280;20720;48.886;9.388;2023-04-09T03:32:43;99052.78;;;11.48;100.00
34482;BME280;20720;48.886;9.388;2023-04-09T03:35:08;99043.59;;;11.58;100.00
34482;BME280;20720;48.886;9.388;2023-04-09T03:37:33;99043.59;;;11.37;100.00
34482;BME280;20720;48.886;9.388;2023-04-09T03:39:59;99051.63;;;11.50;100.00
34482;BME280;20720;48.886;9.388;2023-04-09T03:42:24;99046.97;;;11.52;100.00
34482;BME280;20720;48.886;9.388;2023-04-09T03:44:52;99042.59;;;11.59;100.00
34482;BME280;20720;48.886;9.388;2023-04-09T03:47:18;99041.72;;;11.52;100.00
34482;BME280;20720;48.886;9.388;2023-04-09T03:49:43;99048.59;;;11.53;100.00
34482;BME280;20720;48.886;9.388;2023-04-09T03:52:08;99052.59;;;11.49;100.00
34482;BME280;20720;48.886;9.388;2023-04-09T03:54:34;99053.81;;;11.47;100.00
34482;BME280;20720;48.886;9.388;2023-04-09T03:56:59;99045.28;;;11.45;100.00
34482;BME280;20720;48.886;9.388;2023-04-09T03:59:25;99039.72;;;11.54;100.00
34482;BME280;20720;48.886;9.388;2023-04-09T04:01:50;99042.81;;;11.43;100.00
34482;BME280;20720;48.886;9.388;2023-04-09T04:04:16;99041.44;;;10.61;100.00
34482;BME280;20720;48.886;9.388;2023-04-09T04:06:41;99045.88;;;10.61;100.00
34482;BME280;20720;48.886;9.388;2023-04-09T04:09:06;99039.00;;;10.60;100.00
34482;BME280;20720;48.886;9.388;2023-04-09T04:11:31;99040.88;;;10.66;100.00
34482;BME280;20720;48.886;9.388;2023-04-09T04:13:57;99040.34;;;10.70;100.00
34482;BME280;20720;48.886;9.388;2023-04-09T04:16:22;99043.88;;;10.63;100.00
34482;BME280;20720;48.886;9.388;2023-04-09T04:18:48;99047.13;;;10.65;100.00
34482;BME280;20720;48.886;9.388;2023-04-09T04:21:14;99049.44;;;11.18;100.00
34482;BME280;20720;48.886;9.388;2023-04-09T04:23:39;99052.91;;;11.39;100.00
34482;BME280;20720;48.886;9.388;2023-04-09T04:26:09;99052.09;;;11.39;100.00
34482;BME280;20720;48.886;9.388;2023-04-09T04:28:35;99050.41;;;10.67;100.00
34482;BME280;20720;48.886;9.388;2023-04-09T04:31:01;99055.97;;;11.07;100.00
34482;BME280;20720;48.886;9.388;2023-04-09T04:33:26;99056.03;;;11.28;100.00
34482;BME280;20720;48.886;9.388;2023-04-09T04:35:51;99053.97;;;11.24;100.00
34482;BME280;20720;48.886;9.388;2023-04-09T04:38:17;99057.97;;;11.20;100.00
34482;BME280;20720;48.886;9.388;2023-04-09T04:40:42;99064.72;;;11.29;100.00
34482;BME280;20720;48.886;9.388;2023-04-09T04:43:07;99065.13;;;11.26;100.00
34482;BME280;20720;48.886;9.388;2023-04-09T04:45:32;99070.00;;;11.29;100.00
34482;BME280;20720;48.886;9.388;2023-04-09T04:47:58;99064.19;;;11.33;100.00
34482;BME280;20720;48.886;9.388;2023-04-09T04:50:23;99063.41;;;11.39;100.00
34482;BME280;20720;48.886;9.388;2023-04-09T04:52:48;99067.34;;;10.64;100.00
34482;BME280;20720;48.886;9.388;2023-04-09T04:55:14;99070.47;;;11.18;100.00
34482;BME280;20720;48.886;9.388;2023-04-09T04:57:39;99064.63;;;11.37;100.00
34482;BME280;20720;48.886;9.388;2023-04-09T05:00:05;99066.38;;;11.51;100.00
34482;BME280;20720;48.886;9.388;2023-04-09T05:02:30;99069.28;;;11.56;100.00
34482;BME280;20720;48.886;9.388;2023-04-09T05:04:55;99076.84;;;10.51;100.00
34482;BME280;20720;48.886;9.388;2023-04-09T05:07:20;99079.56;;;11.01;100.00
34482;BME280;20720;48.886;9.388;2023-04-09T05:09:46;99074.28;;;11.51;100.00
34482;BME280;20720;48.886;9.388;2023-04-09T05:12:11;99073.53;;;11.57;100.00
34482;BME280;20720;48.886;9.388;2023-04-09T05:14:37;99076.72;;;11.53;100.00
34482;BME280;20720;48.886;9.388;2023-04-09T05:17:02;99077.19;;;11.77;100.00
34482;BME280;20720;48.886;9.388;2023-04-09T05:19:28;99077.72;;;11.87;100.00
34482;BME280;20720;48.886;9.388;2023-04-09T05:21:53;99079.91;;;11.84;100.00
34482;BME280;20720;48.886;9.388;2023-04-09T05:24:18;99078.13;;;10.84;100.00
34482;BME280;20720;48.886;9.388;2023-04-09T05:26:43;99082.59;;;10.31;100.00
34482;BME280;20720;48.886;9.388;2023-04-09T05:29:09;99086.56;;;10.94;100.00
34482;BME280;20720;48.886;9.388;2023-04-09T05:31:34;99080.16;;;11.17;100.00
34482;BME280;20720;48.886;9.388;2023-04-09T05:34:00;99076.59;;;11.61;100.00
34482;BME280;20720;48.886;9.388;2023-04-09T05:36:25;99074.22;;;11.80;100.00
34482;BME280;20720;48.886;9.388;2023-04-09T05:38:51;99080.72;;;12.05;100.00
34482;BME280;20720;48.886;9.388;2023-04-09T05:41:16;99076.06;;;12.07;100.00
34482;BME280;20720;48.886;9.388;2023-04-09T05:43:41;99076.59;;;12.52;100.00
34482;BME280;20720;48.886;9.388;2023-04-09T05:46:07;99083.63;;;12.72;100.00
34482;BME280;20720;48.886;9.388;2023-04-09T05:48:35;99079.03;;;12.81;100.00
34482;BME280;20720;48.886;9.388;2023-04-09T05:51:01;99071.31;;;12.45;100.00
34482;BME280;20720;48.886;9.388;2023-04-09T05:53:26;99080.84;;;11.97;100.00
34482;BME280;20720;48.886;9.388;2023-04-09T05:55:51;99074.03;;;12.99;100.00
34482;BME280;20720;48.886;9.388;2023-04-09T05:58:17;99080.50;;;12.28;100.00
34482;BME280;20720;48.886;9.388;2023-04-09T06:00:43;99080.56;;;11.50;100.00
34482;BME280;20720;48.886;9.388;2023-04-09T06:03:08;99087.53;;;13.10;100.00
34482;BME280;20720;48.886;9.388;2023-04-09T06:05:34;99089.38;;;11.28;100.00
34482;BME280;20720;48.886;9.388;2023-04-09T06:07:59;99084.88;;;11.93;100.00
34482;BME280;20720;48.886;9.388;2023-04-09T06:10:24;99088.72;;;13.08;100.00
34482;BME280;20720;48.886;9.388;2023-04-09T06:12:50;99085.16;;;13.29;100.00
34482;BME280;20720;48.886;9.388;2023-04-09T06:15:15;99090.94;;;13.65;100.00
34482;BME280;20720;48.886;9.388;2023-04-09T06:17:40;99086.00;;;13.42;100.00
34482;BME280;20720;48.886;9.388;2023-04-09T06:20:06;99089.09;;;13.52;97.54
34482;BME280;20720;48.886;9.388;2023-04-09T06:22:31;99085.53;;;13.92;95.46
34482;BME280;20720;48.886;9.388;2023-04-09T06:24:57;99093.34;;;13.53;96.90
34482;BME280;20720;48.886;9.388;2023-04-09T06:27:22;99089.03;;;12.92;96.61
34482;BME280;20720;48.886;9.388;2023-04-09T06:29:47;99091.22;;;12.54;99.28
34482;BME280;20720;48.886;9.388;2023-04-09T06:32:13;99086.03;;;12.67;98.06
34482;BME280;20720;48.886;9.388;2023-04-09T06:34:38;99085.91;;;12.48;98.69
34482;BME280;20720;48.886;9.388;2023-04-09T06:37:03;99087.63;;;12.62;96.94
34482;BME280;20720;48.886;9.388;2023-04-09T06:39:29;99084.59;;;12.99;94.08
34482;BME280;20720;48.886;9.388;2023-04-09T06:41:54;99090.28;;;12.96;95.79
34482;BME280;20720;48.886;9.388;2023-04-09T06:44:19;99082.72;;;13.27;92.98
34482;BME280;20720;48.886;9.388;2023-04-09T06:46:45;99091.97;;;11.57;100.00
34482;BME280;20720;48.886;9.388;2023-04-09T06:49:11;99080.25;;;12.51;100.00
34482;BME280;20720;48.886;9.388;2023-04-09T06:51:36;99091.81;;;12.84;96.44
34482;BME280;20720;48.886;9.388;2023-04-09T06:54:02;99087.56;;;13.17;93.50
34482;BME280;20720;48.886;9.388;2023-04-09T06:56:27;99092.84;;;12.83;94.33
34482;BME280;20720;48.886;9.388;2023-04-09T06:58:52;99091.97;;;12.76;100.00
34482;BME280;20720;48.886;9.388;2023-04-09T07:01:18;99092.28;;;13.35;92.69
34482;BME280;20720;48.886;9.388;2023-04-09T07:03:44;99091.84;;;14.24;88.94
34482;BME280;20720;48.886;9.388;2023-04-09T07:06:10;99097.16;;;14.37;86.37
34482;BME280;20720;48.886;9.388;2023-04-09T07:08:35;99094.19;;;13.47;92.93
34482;BME280;20720;48.886;9.388;2023-04-09T07:11:00;99097.09;;;14.76;85.38
34482;BME280;20720;48.886;9.388;2023-04-09T07:13:27;99110.50;;;13.90;90.63
34482;BME280;20720;48.886;9.388;2023-04-09T07:15:52;99102.38;;;13.78;90.06
34482;BME280;20720;48.886;9.388;2023-04-09T07:18:17;99117.25;;;14.18;84.92
34482;BME280;20720;48.886;9.388;2023-04-09T07:20:43;99128.00;;;13.91;86.76
34482;BME280;20720;48.886;9.388;2023-04-09T07:23:09;99122.78;;;14.76;80.45
34482;BME280;20720;48.886;9.388;2023-04-09T07:25:34;99124.81;;;14.74;77.89
34482;BME280;20720;48.886;9.388;2023-04-09T07:27:59;99119.44;;;13.82;81.71
34482;BME280;20720;48.886;9.388;2023-04-09T07:30:24;99131.25;;;13.26;82.08
34482;BME280;20720;48.886;9.388;2023-04-09T07:32:50;99130.72;;;14.30;79.59
34482;BME280;20720;48.886;9.388;2023-04-09T07:35:15;99132.16;;;14.46;77.63
34482;BME280;20720;48.886;9.388;2023-04-09T07:37:42;99120.75;;;14.52;77.04
34482;BME280;20720;48.886;9.388;2023-04-09T07:40:08;99124.78;;;14.80;76.96
34482;BME280;20720;48.886;9.388;2023-04-09T07:42:33;99124.53;;;15.08;73.07
34482;BME280;20720;48.886;9.388;2023-04-09T07:45:00;99120.53;;;15.50;72.42
34482;BME280;20720;48.886;9.388;2023-04-09T07:47:27;99128.88;;;15.47;71.66
34482;BME280;20720;48.886;9.388;2023-04-09T07:49:52;99130.63;;;15.15;72.38
34482;BME280;20720;48.886;9.388;2023-04-09T07:52:17;99128.47;;;16.50;69.82
34482;BME280;20720;48.886;9.388;2023-04-09T07:54:44;99124.28;;;16.36;65.83
34482;BME280;20720;48.886;9.388;2023-04-09T07:57:09;99130.94;;;15.89;66.09
34482;BME280;20720;48.886;9.388;2023-04-09T07:59:35;99129.28;;;14.41;72.88
34482;BME280;20720;48.886;9.388;2023-04-09T08:02:00;99128.56;;;13.73;77.46
34482;BME280;20720;48.886;9.388;2023-04-09T08:04:26;99141.56;;;13.21;83.51
34482;BME280;20720;48.886;9.388;2023-04-09T08:06:52;99136.19;;;14.35;78.55
34482;BME280;20720;48.886;9.388;2023-04-09T08:09:19;99129.63;;;17.03;68.12
34482;BME280;20720;48.886;9.388;2023-04-09T08:11:45;99139.47;;;16.53;66.48
34482;BME280;20720;48.886;9.388;2023-04-09T08:14:11;99130.75;;;17.43;63.32
34482;BME280;20720;48.886;9.388;2023-04-09T08:16:41;99130.53;;;16.41;65.38
34482;BME280;20720;48.886;9.388;2023-04-09T08:19:07;99141.03;;;14.97;66.93
34482;BME280;20720;48.886;9.388;2023-04-09T08:21:33;99138.47;;;16.72;63.87
34482;BME280;20720;48.886;9.388;2023-04-09T08:23:59;99135.25;;;16.70;62.63
34482;BME280;20720;48.886;9.388;2023-04-09T08:26:28;99131.16;;;17.11;62.39
34482;BME280;20720;48.886;9.388;2023-04-09T08:28:54;99137.28;;;17.65;58.90
34482;BME280;20720;48.886;9.388;2023-04-09T08:31:19;99132.28;;;17.87;56.91
34482;BME280;20720;48.886;9.388;2023-04-09T08:33:45;99132.59;;;18.73;54.57
34482;BME280;20720;48.886;9.388;2023-04-09T08:36:10;99135.09;;;17.92;54.94
34482;BME280;20720;48.886;9.388;2023-04-09T08:38:35;99143.78;;;17.99;55.92
34482;BME280;20720;48.886;9.388;2023-04-09T08:41:01;99143.47;;;18.19;55.99
34482;BME280;20720;48.886;9.388;2023-04-09T08:43:27;99148.56;;;17.91;56.50
34482;BME280;20720;48.886;9.388;2023-04-09T08:45:52;99145.41;;;18.12;55.09
34482;BME280;20720;48.886;9.388;2023-04-09T08:48:22;99156.56;;;18.20;54.78
34482;BME280;20720;48.886;9.388;2023-04-09T08:50:48;99151.47;;;17.89;54.66
34482;BME280;20720;48.886;9.388;2023-04-09T08:53:14;99142.56;;;19.92;50.90
34482;BME280;20720;48.886;9.388;2023-04-09T08:55:44;99138.31;;;20.07;48.87
34482;BME280;20720;48.886;9.388;2023-04-09T08:58:09;99142.75;;;19.45;49.84
34482;BME280;20720;48.886;9.388;2023-04-09T09:00:36;99150.00;;;19.50;48.00
34482;BME280;20720;48.886;9.388;2023-04-09T09:03:04;99142.75;;;20.46;47.27
34482;BME280;20720;48.886;9.388;2023-04-09T09:05:44;99150.81;;;19.62;48.98
34482;BME280;20720;48.886;9.388;2023-04-09T09:08:21;99155.22;;;19.56;47.93
34482;BME280;20720;48.886;9.388;2023-04-09T09:10:46;99151.69;;;19.16;48.47
34482;BME280;20720;48.886;9.388;2023-04-09T09:13:23;99153.63;;;19.44;47.29
34482;BME280;20720;48.886;9.388;2023-04-09T09:15:53;99160.28;;;18.31;50.49
34482;BME280;20720;48.886;9.388;2023-04-09T09:18:36;99151.47;;;18.71;49.03
34482;BME280;20720;48.886;9.388;2023-04-09T09:21:15;99151.50;;;19.57;47.04
34482;BME280;20720;48.886;9.388;2023-04-09T09:23:42;99153.63;;;19.32;47.48
34482;BME280;20720;48.886;9.388;2023-04-09T09:26:20;99145.19;;;20.03;46.60
34482;BME280;20720;48.886;9.388;2023-04-09T09:28:46;99151.09;;;20.83;46.34
34482;BME280;20720;48.886;9.388;2023-04-09T09:31:16;99149.94;;;19.33;45.93
34482;BME280;20720;48.886;9.388;2023-04-09T09:33:42;99154.84;;;17.66;49.70
34482;BME280;20720;48.886;9.388;2023-04-09T09:36:08;99151.81;;;17.63;49.81
34482;BME280;20720;48.886;9.388;2023-04-09T09:38:50;99155.53;;;17.92;50.14
34482;BME280;20720;48.886;9.388;2023-04-09T09:41:16;99147.28;;;18.75;50.17
34482;BME280;20720;48.886;9.388;2023-04-09T09:43:42;99151.97;;;18.39;49.72
34482;BME280;20720;48.886;9.388;2023-04-09T09:46:08;99147.47;;;16.16;54.73
34482;BME280;20720;48.886;9.388;2023-04-09T09:48:34;99151.34;;;17.30;51.39
34482;BME280;20720;48.886;9.388;2023-04-09T09:51:01;99156.41;;;18.45;49.85
34482;BME280;20720;48.886;9.388;2023-04-09T09:53:29;99156.47;;;17.49;49.99
34482;BME280;20720;48.886;9.388;2023-04-09T09:55:58;99153.22;;;17.65;51.36
34482;BME280;20720;48.886;9.388;2023-04-09T09:58:27;99155.81;;;18.02;50.55
34482;BME280;20720;48.886;9.388;2023-04-09T10:00:56;99144.38;;;16.19;47.89
34482;BME280;20720;48.886;9.388;2023-04-09T10:03:26;99150.41;;;18.84;45.66
34482;BME280;20720;48.886;9.388;2023-04-09T10:05:52;99145.09;;;17.78;47.84
34482;BME280;20720;48.886;9.388;2023-04-09T10:08:19;99135.00;;;20.00;45.97
34482;BME280;20720;48.886;9.388;2023-04-09T10:10:45;99140.47;;;19.65;45.51
34482;BME280;20720;48.886;9.388;2023-04-09T10:13:16;99143.69;;;19.16;48.84
34482;BME280;20720;48.886;9.388;2023-04-09T10:15:42;99131.34;;;19.50;46.98
34482;BME280;20720;48.886;9.388;2023-04-09T10:18:09;99133.28;;;19.03;48.49
34482;BME280;20720;48.886;9.388;2023-04-09T10:20:47;99125.97;;;21.01;43.12
34482;BME280;20720;48.886;9.388;2023-04-09T10:23:20;99137.50;;;20.68;43.00
34482;BME280;20720;48.886;9.388;2023-04-09T10:25:48;99132.09;;;19.22;46.83
34482;BME280;20720;48.886;9.388;2023-04-09T10:28:16;99135.41;;;17.30;46.77
34482;BME280;20720;48.886;9.388;2023-04-09T10:30:41;99140.53;;;19.42;43.37
34482;BME280;20720;48.886;9.388;2023-04-09T10:33:12;99131.91;;;20.36;40.30
34482;BME280;20720;48.886;9.388;2023-04-09T10:35:38;99127.53;;;21.62;39.60
34482;BME280;20720;48.886;9.388;2023-04-09T10:38:07;99124.84;;;19.86;42.88
34482;BME280;20720;48.886;9.388;2023-04-09T10:40:34;99123.59;;;21.21;41.61
34482;BME280;20720;48.886;9.388;2023-04-09T10:43:00;99129.09;;;19.07;43.94
34482;BME280;20720;48.886;9.388;2023-04-09T10:45:38;99131.91;;;20.36;43.13
34482;BME280;20720;48.886;9.388;2023-04-09T10:48:03;99122.78;;;21.42;40.14
34482;BME280;20720;48.886;9.388;2023-04-09T10:50:31;99132.25;;;18.17;46.83
34482;BME280;20720;48.886;9.388;2023-04-09T10:52:57;99132.63;;;23.11;39.36
34482;BME280;20720;48.886;9.388;2023-04-09T10:55:40;99126.59;;;23.31;36.83
34482;BME280;20720;48.886;9.388;2023-04-09T10:58:08;99117.13;;;21.38;38.48
34482;BME280;20720;48.886;9.388;2023-04-09T11:00:52;99117.59;;;22.05;38.70
34482;BME280;20720;48.886;9.388;2023-04-09T11:03:28;99114.59;;;21.27;40.18
34482;BME280;20720;48.886;9.388;2023-04-09T11:06:02;99108.59;;;21.20;40.87
34482;BME280;20720;48.886;9.388;2023-04-09T11:08:31;99115.97;;;21.78;39.76
34482;BME280;20720;48.886;9.388;2023-04-09T11:10:57;99112.50;;;23.56;36.58
34482;BME280;20720;48.886;9.388;2023-04-09T11:13:25;99109.69;;;24.27;36.08
34482;BME280;20720;48.886;9.388;2023-04-09T11:15:51;99112.41;;;22.52;38.19
34482;BME280;20720;48.886;9.388;2023-04-09T11:18:27;99109.44;;;24.24;36.92
34482;BME280;20720;48.886;9.388;2023-04-09T11:20:54;99103.81;;;22.50;38.85
34482;BME280;20720;48.886;9.388;2023-04-09T11:23:19;99105.63;;;23.28;37.07
34482;BME280;20720;48.886;9.388;2023-04-09T11:25:48;99098.13;;;24.47;35.41
34482;BME280;20720;48.886;9.388;2023-04-09T11:28:14;99092.44;;;25.68;34.80
34482;BME280;20720;48.886;9.388;2023-04-09T11:30:40;99096.38;;;20.69;41.46
34482;BME280;20720;48.886;9.388;2023-04-09T11:33:06;99089.75;;;22.65;37.30
34482;BME280;20720;48.886;9.388;2023-04-09T11:35:33;99097.72;;;21.26;37.96
34482;BME280;20720;48.886;9.388;2023-04-09T11:37:58;99106.13;;;19.41;42.13
34482;BME280;20720;48.886;9.388;2023-04-09T11:40:25;99095.78;;;21.00;39.18
34482;BME280;20720;48.886;9.388;2023-04-09T11:42:54;99094.19;;;22.54;36.67
34482;BME280;20720;48.886;9.388;2023-04-09T11:45:24;99078.88;;;19.95;42.68
34482;BME280;20720;48.886;9.388;2023-04-09T11:47:50;99098.34;;;23.18;37.52
34482;BME280;20720;48.886;9.388;2023-04-09T11:50:16;99097.31;;;23.24;35.15
34482;BME280;20720;48.886;9.388;2023-04-09T11:52:43;99088.31;;;21.24;38.68
34482;BME280;20720;48.886;9.388;2023-04-09T11:55:09;99092.84;;;20.30;41.99
34482;BME280;20720;48.886;9.388;2023-04-09T11:57:42;99087.06;;;23.83;37.41
34482;BME280;20720;48.886;9.388;2023-04-09T12:00:12;99087.66;;;20.24;42.36
34482;BME280;20720;48.886;9.388;2023-04-09T12:02:46;99093.03;;;19.28;42.30
34482;BME280;20720;48.886;9.388;2023-04-09T12:05:20;99082.63;;;20.27;42.28
34482;BME280;20720;48.886;9.388;2023-04-09T12:07:46;99086.81;;;20.07;41.86
34482;BME280;20720;48.886;9.388;2023-04-09T12:10:11;99082.41;;;20.84;40.99
34482;BME280;20720;48.886;9.388;2023-04-09T12:12:46;99078.41;;;23.61;37.47
34482;BME280;20720;48.886;9.388;2023-04-09T12:15:20;99080.19;;;20.76;42.87
34482;BME280;20720;48.886;9.388;2023-04-09T12:17:53;99072.44;;;26.23;33.96
34482;BME280;20720;48.886;9.388;2023-04-09T12:20:29;99074.38;;;25.73;33.18
34482;BME280;20720;48.886;9.388;2023-04-09T12:22:55;99071.34;;;21.57;38.98
34482;BME280;20720;48.886;9.388;2023-04-09T12:25:21;99081.28;;;19.97;41.82
34482;BME280;20720;48.886;9.388;2023-04-09T12:27:46;99071.09;;;23.37;37.30
34482;BME280;20720;48.886;9.388;2023-04-09T12:30:11;99078.09;;;19.15;41.25
34482;BME280;20720;48.886;9.388;2023-04-09T12:32:37;99069.94;;;20.18;42.37
34482;BME280;20720;48.886;9.388;2023-04-09T12:35:03;99074.38;;;20.62;39.08
34482;BME280;20720;48.886;9.388;2023-04-09T12:37:28;99070.25;;;21.09;39.09
34482;BME280;20720;48.886;9.388;2023-04-09T12:39:53;99066.91;;;24.81;34.18
34482;BME280;20720;48.886;9.388;2023-04-09T12:42:19;99057.75;;;24.97;31.11
34482;BME280;20720;48.886;9.388;2023-04-09T12:44:44;99055.44;;;24.36;32.45
34482;BME280;20720;48.886;9.388;2023-04-09T12:47:10;99050.78;;;23.61;35.08
34482;BME280;20720;48.886;9.388;2023-04-09T12:49:35;99052.72;;;24.56;33.48
34482;BME280;20720;48.886;9.388;2023-04-09T12:52:00;99044.34;;;23.62;33.67
34482;BME280;20720;48.886;9.388;2023-04-09T12:54:26;99048.63;;;24.88;33.74
34482;BME280;20720;48.886;9.388;2023-04-09T12:56:51;99048.59;;;26.01;31.69
34482;BME280;20720;48.886;9.388;2023-04-09T12:59:16;99048.47;;;24.14;32.30
34482;BME280;20720;48.886;9.388;2023-04-09T13:01:41;99046.31;;;24.32;32.88